Pagina principale
METAR-TAF:

METAR-TAF

Aeroporti :

Aviano, Italia

Base aerea di Aviano

latitudine: 46-02N, longitudine: 012-36E, altezza: 128 m

Osservazione

Il bollettino è stato emesso 44 minuti fa, alle 12:55 UTC
Vento 5 kt da ovest/sud-ovest
Temperature 13°C
Umidità 94%
Pressione 1010 hPa
Visibilità 10 km o più
Nubi sparse ad un'altezza di 5000 ft
Nuvoloso ad un'altezza di 7000 ft
pioggia debole

METAR: LIPA 191255Z 25005KT 9999 -RA SCT050 BKN070 13/12 Q1010 RMK OVC VIS MIN 9999 WIND THR05 25007KT WIND THR23 24007KT A2983 BLU

Ora: 15:39 (13:39 UTC)

Previsione

Il bollettino è stato emesso 2 ore e 39 minuti fa, alle 11:00 UTC
Previsione valida dal 19 alle 12 UTC al 19 alle 21 UTC
Vento 10 kt da nord
Visibilità 10 km o più
Nubi sparse ad un'altezza di 4000 ft
Nuvoloso ad un'altezza di 7000 ft
pioggia

TAF: LIPA 191100Z 1912/1921 01010KT 9999 RA SCT040 BKN070

Osservazioni e previsioni meteorologiche di più di 4000 aeroporti (messaggi METAR e TAF).

Le stazioni disponibili sono rappresentate dai dischi gialli e rossi sulla carta.

Puntare il mouse per vedere il nome della stazione.

Clicca sopra per visualizzare le osservazioni e previsioni meteorologiche.

Per cambiare la mappa : fare clic sui pulsanti verdi con una croce nera per ingrandire, il pulsante verde con un trattino per diminuire, o sulla freccia verde per le mappe adiacenti.


METAR-TAF: